Pagina principale
METAR-TAF:

METAR-TAF

Aeroporti :

Meiringen, Svizzera

latitudine: 46-44-25N, longitudine: 8-06-36E, altezza: 577 m

Osservazione

Il bollettino è stato emesso 25 minuti fa, alle 17:50 UTC
Vento 3 kt da ovest, variando fra sud-ovest e nord-ovest
Temperature 2°C
Umidità 93%
Pressione 1009 hPa
Visibilità 10 km o più
Nubi sparse ad un'altezza di 500 ft
Cielo coperto ad un'altezza di 700 ft

METAR: LSMM 211750Z AUTO 26003KT 230V320 9999NDV SCT005 OVC007 02/01 Q1009 RMK

Ora: 19:15 (18:15 UTC)


TAF: mancante

Osservazioni e previsioni meteorologiche di più di 4000 aeroporti (messaggi METAR e TAF).

Le stazioni disponibili sono rappresentate dai dischi gialli e rossi sulla carta.

Puntare il mouse per vedere il nome della stazione.

Clicca sopra per visualizzare le osservazioni e previsioni meteorologiche.

Per cambiare la mappa : fare clic sui pulsanti verdi con una croce nera per ingrandire, il pulsante verde con un trattino per diminuire, o sulla freccia verde per le mappe adiacenti.


METAR-TAF: